PANC/ANC METAR and TAF weather

Enter ICAO airport designator
Station Type Date Time Source
PANC METAR 2021/07/28 03:53 UTC NOAA

PANC 280353Z 25009KT 10SM SCT041 BKN055 OVC240 17/10 A3006 RMK AO2 SLP178 T01670100


Station Type Date Time Source
PANC Decoded METAR 2021/07/28 03:53 UTC NOAA

TED STEVENS ANCHORAGE INTERNATIONAL , AK, United States (PANC) 61-10N 150-02W 48M
Jul 27, 2021 - 11:53 PM EDT / 2021.07.28 0353 UTC
Wind: from the WSW (250 degrees) at 10 MPH (9 KT):0
Visibility: 10 mile(s):0
Sky conditions: overcast
Temperature: 62.1 F (16.7 C)
Dew Point: 50.0 F (10.0 C)
Relative Humidity: 64%
Pressure (altimeter): 30.06 in. Hg (1017 hPa)
ob: PANC 280353Z 25009KT 10SM SCT041 BKN055 OVC240 17/10 A3006 RMK AO2 SLP178 T01670100
cycle: 4

Station Type Date Time Source
PANC TAF 2021/07/28 03:21 UTC NOAA

TAF
AMD PANC 280319Z 2803/2906 29008KT P6SM BKN040 BKN120
TEMPO 2805/2807 17010G15KT
FM280700 17010G18KT P6SM BKN040
FM281200 17006KT P6SM BKN040

Example: see airport list